sensor_id;sensor_type;location;lat;lon;timestamp;P1;durP1;ratioP1;P2;durP2;ratioP2
305;SDS011;137;48.578;9.180;2022-09-16T00:00:18;6.43;;;5.83;;
305;SDS011;137;48.578;9.180;2022-09-16T00:02:45;6.87;;;6.17;;
305;SDS011;137;48.578;9.180;2022-09-16T00:05:12;7.03;;;6.33;;
305;SDS011;137;48.578;9.180;2022-09-16T00:07:39;6.30;;;5.80;;
305;SDS011;137;48.578;9.180;2022-09-16T00:10:06;7.63;;;6.60;;
305;SDS011;137;48.578;9.180;2022-09-16T00:12:34;8.77;;;5.30;;
305;SDS011;137;48.578;9.180;2022-09-16T00:15:00;7.00;;;5.13;;
305;SDS011;137;48.578;9.180;2022-09-16T00:17:29;7.03;;;6.33;;
305;SDS011;137;48.578;9.180;2022-09-16T00:19:56;7.13;;;6.40;;
305;SDS011;137;48.578;9.180;2022-09-16T00:22:23;6.40;;;5.57;;
305;SDS011;137;48.578;9.180;2022-09-16T00:24:50;6.43;;;5.10;;
305;SDS011;137;48.578;9.180;2022-09-16T00:27:17;6.30;;;5.83;;
305;SDS011;137;48.578;9.180;2022-09-16T00:29:44;12.23;;;6.33;;
305;SDS011;137;48.578;9.180;2022-09-16T00:32:10;6.90;;;6.20;;
305;SDS011;137;48.578;9.180;2022-09-16T00:34:39;7.63;;;6.07;;
305;SDS011;137;48.578;9.180;2022-09-16T00:37:05;9.40;;;6.23;;
305;SDS011;137;48.578;9.180;2022-09-16T00:39:33;5.97;;;5.47;;
305;SDS011;137;48.578;9.180;2022-09-16T00:42:00;7.47;;;6.77;;
305;SDS011;137;48.578;9.180;2022-09-16T00:47:19;8.30;;;6.30;;
305;SDS011;137;48.578;9.180;2022-09-16T00:49:51;6.03;;;5.53;;
305;SDS011;137;48.578;9.180;2022-09-16T00:52:21;5.90;;;5.40;;
305;SDS011;137;48.578;9.180;2022-09-16T00:54:48;10.87;;;6.67;;
305;SDS011;137;48.578;9.180;2022-09-16T00:57:15;7.80;;;5.73;;
305;SDS011;137;48.578;9.180;2022-09-16T00:59:42;7.10;;;6.40;;
305;SDS011;137;48.578;9.180;2022-09-16T01:02:16;6.50;;;6.00;;
305;SDS011;137;48.578;9.180;2022-09-16T01:04:45;6.87;;;6.20;;
305;SDS011;137;48.578;9.180;2022-09-16T01:07:17;7.13;;;6.33;;
305;SDS011;137;48.578;9.180;2022-09-16T01:09:51;6.93;;;6.23;;
305;SDS011;137;48.578;9.180;2022-09-16T01:12:18;6.70;;;6.10;;
305;SDS011;137;48.578;9.180;2022-09-16T01:14:45;6.50;;;5.90;;
305;SDS011;137;48.578;9.180;2022-09-16T01:23:39;6.30;;;5.70;;
305;SDS011;137;48.578;9.180;2022-09-16T01:26:33;8.20;;;5.87;;
305;SDS011;137;48.578;9.180;2022-09-16T01:32:13;7.30;;;6.60;;
305;SDS011;137;48.578;9.180;2022-09-16T01:34:44;6.90;;;6.23;;
305;SDS011;137;48.578;9.180;2022-09-16T01:37:20;6.17;;;5.50;;
305;SDS011;137;48.578;9.180;2022-09-16T01:39:55;12.67;;;7.90;;
305;SDS011;137;48.578;9.180;2022-09-16T01:42:29;6.63;;;6.03;;
305;SDS011;137;48.578;9.180;2022-09-16T01:45:03;7.00;;;6.30;;
305;SDS011;137;48.578;9.180;2022-09-16T01:47:35;7.97;;;7.20;;
305;SDS011;137;48.578;9.180;2022-09-16T01:50:07;8.00;;;6.63;;
305;SDS011;137;48.578;9.180;2022-09-16T01:52:42;8.43;;;6.53;;
305;SDS011;137;48.578;9.180;2022-09-16T01:55:14;8.13;;;7.43;;
305;SDS011;137;48.578;9.180;2022-09-16T01:57:49;7.27;;;6.57;;
305;SDS011;137;48.578;9.180;2022-09-16T02:00:19;6.90;;;6.37;;
305;SDS011;137;48.578;9.180;2022-09-16T02:02:49;6.93;;;5.80;;
305;SDS011;137;48.578;9.180;2022-09-16T02:05:21;5.93;;;5.33;;
305;SDS011;137;48.578;9.180;2022-09-16T02:07:53;9.00;;;6.33;;
305;SDS011;137;48.578;9.180;2022-09-16T02:10:23;6.63;;;6.00;;
305;SDS011;137;48.578;9.180;2022-09-16T02:12:53;6.77;;;6.10;;
305;SDS011;137;48.578;9.180;2022-09-16T02:15:24;7.30;;;6.60;;
305;SDS011;137;48.578;9.180;2022-09-16T02:17:56;6.70;;;6.00;;
305;SDS011;137;48.578;9.180;2022-09-16T02:20:26;7.10;;;6.50;;
305;SDS011;137;48.578;9.180;2022-09-16T02:22:56;5.60;;;5.20;;
305;SDS011;137;48.578;9.180;2022-09-16T02:25:26;7.20;;;6.10;;
305;SDS011;137;48.578;9.180;2022-09-16T02:27:54;6.67;;;6.03;;
305;SDS011;137;48.578;9.180;2022-09-16T02:30:24;7.13;;;6.33;;
305;SDS011;137;48.578;9.180;2022-09-16T02:32:52;7.00;;;6.27;;
305;SDS011;137;48.578;9.180;2022-09-16T02:35:23;8.13;;;6.00;;
305;SDS011;137;48.578;9.180;2022-09-16T02:37:53;7.23;;;6.53;;
305;SDS011;137;48.578;9.180;2022-09-16T02:40:25;6.50;;;5.90;;
305;SDS011;137;48.578;9.180;2022-09-16T02:42:57;7.37;;;6.60;;
305;SDS011;137;48.578;9.180;2022-09-16T02:45:27;9.60;;;7.00;;
305;SDS011;137;48.578;9.180;2022-09-16T02:48:02;7.77;;;6.97;;
305;SDS011;137;48.578;9.180;2022-09-16T02:50:36;6.83;;;6.23;;
305;SDS011;137;48.578;9.180;2022-09-16T02:53:07;6.70;;;6.10;;
305;SDS011;137;48.578;9.180;2022-09-16T02:55:45;6.63;;;6.00;;
305;SDS011;137;48.578;9.180;2022-09-16T02:58:16;7.03;;;6.43;;
305;SDS011;137;48.578;9.180;2022-09-16T03:00:44;11.20;;;6.83;;
305;SDS011;137;48.578;9.180;2022-09-16T03:03:14;6.90;;;6.20;;
305;SDS011;137;48.578;9.180;2022-09-16T03:05:49;7.07;;;6.47;;
305;SDS011;137;48.578;9.180;2022-09-16T03:08:31;7.50;;;5.90;;
305;SDS011;137;48.578;9.180;2022-09-16T03:10:59;6.70;;;6.00;;
305;SDS011;137;48.578;9.180;2022-09-16T03:13:34;7.47;;;6.77;;
305;SDS011;137;48.578;9.180;2022-09-16T03:16:10;21.87;;;6.37;;
305;SDS011;137;48.578;9.180;2022-09-16T03:18:48;7.37;;;6.67;;
305;SDS011;137;48.578;9.180;2022-09-16T03:21:23;6.00;;;5.50;;
305;SDS011;137;48.578;9.180;2022-09-16T03:23:59;7.23;;;6.37;;
305;SDS011;137;48.578;9.180;2022-09-16T03:26:35;8.13;;;7.10;;
305;SDS011;137;48.578;9.180;2022-09-16T03:29:11;8.00;;;7.20;;
305;SDS011;137;48.578;9.180;2022-09-16T03:31:45;7.93;;;6.57;;
305;SDS011;137;48.578;9.180;2022-09-16T03:34:19;8.00;;;7.17;;
305;SDS011;137;48.578;9.180;2022-09-16T03:36:50;8.03;;;7.30;;
305;SDS011;137;48.578;9.180;2022-09-16T03:39:21;6.90;;;6.20;;
305;SDS011;137;48.578;9.180;2022-09-16T03:41:48;7.00;;;6.40;;
305;SDS011;137;48.578;9.180;2022-09-16T03:44:16;7.90;;;7.20;;
305;SDS011;137;48.578;9.180;2022-09-16T03:46:43;6.60;;;6.00;;
305;SDS011;137;48.578;9.180;2022-09-16T03:49:10;6.50;;;5.93;;
305;SDS011;137;48.578;9.180;2022-09-16T03:51:38;7.47;;;6.77;;
305;SDS011;137;48.578;9.180;2022-09-16T03:54:05;7.63;;;6.97;;
305;SDS011;137;48.578;9.180;2022-09-16T03:56:32;7.83;;;7.20;;
305;SDS011;137;48.578;9.180;2022-09-16T03:58:59;7.90;;;7.20;;
305;SDS011;137;48.578;9.180;2022-09-16T04:01:25;8.27;;;7.57;;
305;SDS011;137;48.578;9.180;2022-09-16T04:03:52;7.47;;;6.70;;
305;SDS011;137;48.578;9.180;2022-09-16T04:06:19;10.33;;;6.03;;
305;SDS011;137;48.578;9.180;2022-09-16T04:08:47;6.73;;;6.13;;
305;SDS011;137;48.578;9.180;2022-09-16T04:11:15;6.17;;;5.67;;
305;SDS011;137;48.578;9.180;2022-09-16T04:13:42;7.60;;;6.87;;
305;SDS011;137;48.578;9.180;2022-09-16T04:16:09;8.87;;;7.43;;
305;SDS011;137;48.578;9.180;2022-09-16T04:18:36;6.87;;;6.27;;
305;SDS011;137;48.578;9.180;2022-09-16T04:21:02;7.47;;;6.80;;
305;SDS011;137;48.578;9.180;2022-09-16T04:23:30;6.90;;;6.20;;
305;SDS011;137;48.578;9.180;2022-09-16T04:25:58;9.47;;;6.60;;
305;SDS011;137;48.578;9.180;2022-09-16T04:28:27;12.23;;;6.67;;
305;SDS011;137;48.578;9.180;2022-09-16T04:30:58;7.80;;;7.10;;
305;SDS011;137;48.578;9.180;2022-09-16T04:33:26;6.53;;;5.83;;
305;SDS011;137;48.578;9.180;2022-09-16T04:36:00;7.87;;;7.10;;
305;SDS011;137;48.578;9.180;2022-09-16T04:38:27;7.20;;;6.60;;
305;SDS011;137;48.578;9.180;2022-09-16T04:40:59;7.90;;;7.10;;
305;SDS011;137;48.578;9.180;2022-09-16T04:43:27;6.77;;;6.17;;
305;SDS011;137;48.578;9.180;2022-09-16T04:45:53;7.87;;;7.07;;
305;SDS011;137;48.578;9.180;2022-09-16T04:48:20;6.83;;;6.27;;
305;SDS011;137;48.578;9.180;2022-09-16T04:50:47;8.30;;;7.47;;
305;SDS011;137;48.578;9.180;2022-09-16T04:53:14;8.23;;;7.30;;
305;SDS011;137;48.578;9.180;2022-09-16T04:55:41;8.90;;;8.10;;
305;SDS011;137;48.578;9.180;2022-09-16T04:58:09;7.30;;;6.60;;
305;SDS011;137;48.578;9.180;2022-09-16T05:00:36;9.17;;;6.40;;
305;SDS011;137;48.578;9.180;2022-09-16T05:03:03;9.80;;;7.17;;
305;SDS011;137;48.578;9.180;2022-09-16T05:05:30;7.40;;;6.80;;
305;SDS011;137;48.578;9.180;2022-09-16T05:07:57;10.17;;;6.60;;
305;SDS011;137;48.578;9.180;2022-09-16T05:10:23;7.83;;;7.13;;
305;SDS011;137;48.578;9.180;2022-09-16T05:12:51;7.47;;;6.87;;
305;SDS011;137;48.578;9.180;2022-09-16T05:15:20;7.33;;;6.53;;
305;SDS011;137;48.578;9.180;2022-09-16T05:17:47;8.43;;;7.63;;
305;SDS011;137;48.578;9.180;2022-09-16T05:20:14;7.83;;;7.03;;
305;SDS011;137;48.578;9.180;2022-09-16T05:22:41;10.52;;;8.32;;
305;SDS011;137;48.578;9.180;2022-09-16T05:25:08;8.47;;;7.67;;
305;SDS011;137;48.578;9.180;2022-09-16T05:27:35;6.93;;;6.10;;
305;SDS011;137;48.578;9.180;2022-09-16T05:30:02;7.93;;;6.60;;
305;SDS011;137;48.578;9.180;2022-09-16T05:32:30;7.60;;;7.00;;
305;SDS011;137;48.578;9.180;2022-09-16T05:34:58;7.13;;;6.43;;
305;SDS011;137;48.578;9.180;2022-09-16T05:37:24;7.00;;;6.17;;
305;SDS011;137;48.578;9.180;2022-09-16T05:39:51;6.97;;;6.07;;
305;SDS011;137;48.578;9.180;2022-09-16T05:42:19;8.27;;;7.50;;
305;SDS011;137;48.578;9.180;2022-09-16T05:44:46;7.63;;;6.40;;
305;SDS011;137;48.578;9.180;2022-09-16T05:47:12;8.10;;;7.30;;
305;SDS011;137;48.578;9.180;2022-09-16T05:49:41;7.67;;;6.97;;
305;SDS011;137;48.578;9.180;2022-09-16T05:52:07;9.77;;;7.77;;
305;SDS011;137;48.578;9.180;2022-09-16T05:54:35;8.90;;;6.40;;
305;SDS011;137;48.578;9.180;2022-09-16T05:57:01;10.40;;;6.30;;
305;SDS011;137;48.578;9.180;2022-09-16T05:59:29;5.00;;;4.50;;
305;SDS011;137;48.578;9.180;2022-09-16T06:01:55;5.60;;;4.40;;
305;SDS011;137;48.578;9.180;2022-09-16T06:04:22;7.63;;;4.50;;
305;SDS011;137;48.578;9.180;2022-09-16T06:06:50;12.13;;;4.30;;
305;SDS011;137;48.578;9.180;2022-09-16T06:09:18;5.53;;;4.13;;
305;SDS011;137;48.578;9.180;2022-09-16T06:11:47;9.13;;;5.03;;
305;SDS011;137;48.578;9.180;2022-09-16T06:14:15;5.80;;;3.87;;
305;SDS011;137;48.578;9.180;2022-09-16T06:16:43;4.10;;;3.27;;
305;SDS011;137;48.578;9.180;2022-09-16T06:19:11;7.63;;;4.00;;
305;SDS011;137;48.578;9.180;2022-09-16T06:21:39;5.20;;;4.47;;
305;SDS011;137;48.578;9.180;2022-09-16T06:24:09;5.97;;;4.70;;
305;SDS011;137;48.578;9.180;2022-09-16T06:26:37;5.73;;;4.20;;
305;SDS011;137;48.578;9.180;2022-09-16T06:29:05;4.70;;;4.03;;
305;SDS011;137;48.578;9.180;2022-09-16T06:31:33;4.30;;;4.00;;
305;SDS011;137;48.578;9.180;2022-09-16T06:34:01;7.67;;;4.27;;
305;SDS011;137;48.578;9.180;2022-09-16T06:36:29;4.90;;;4.20;;
305;SDS011;137;48.578;9.180;2022-09-16T06:38:57;3.93;;;3.63;;
305;SDS011;137;48.578;9.180;2022-09-16T06:41:26;6.63;;;3.00;;
305;SDS011;137;48.578;9.180;2022-09-16T06:43:53;11.17;;;4.20;;
305;SDS011;137;48.578;9.180;2022-09-16T06:46:20;6.13;;;3.60;;
305;SDS011;137;48.578;9.180;2022-09-16T06:48:49;5.57;;;4.20;;
305;SDS011;137;48.578;9.180;2022-09-16T06:51:19;4.50;;;3.40;;
305;SDS011;137;48.578;9.180;2022-09-16T06:53:48;4.30;;;3.90;;
305;SDS011;137;48.578;9.180;2022-09-16T06:56:16;3.93;;;3.50;;
305;SDS011;137;48.578;9.180;2022-09-16T06:58:45;4.93;;;3.87;;
305;SDS011;137;48.578;9.180;2022-09-16T07:01:14;4.80;;;4.20;;
305;SDS011;137;48.578;9.180;2022-09-16T07:03:43;7.10;;;4.37;;
305;SDS011;137;48.578;9.180;2022-09-16T07:06:11;6.90;;;4.50;;
305;SDS011;137;48.578;9.180;2022-09-16T07:08:39;4.43;;;4.03;;
305;SDS011;137;48.578;9.180;2022-09-16T07:11:07;4.50;;;3.60;;
305;SDS011;137;48.578;9.180;2022-09-16T07:13:36;5.57;;;4.30;;
305;SDS011;137;48.578;9.180;2022-09-16T07:16:05;5.40;;;5.00;;
305;SDS011;137;48.578;9.180;2022-09-16T07:18:33;10.40;;;4.67;;
305;SDS011;137;48.578;9.180;2022-09-16T07:21:00;7.13;;;5.40;;
305;SDS011;137;48.578;9.180;2022-09-16T07:23:28;7.90;;;5.37;;
305;SDS011;137;48.578;9.180;2022-09-16T07:26:00;6.60;;;4.80;;
305;SDS011;137;48.578;9.180;2022-09-16T07:28:27;4.87;;;4.37;;
305;SDS011;137;48.578;9.180;2022-09-16T07:30:55;7.20;;;4.70;;
305;SDS011;137;48.578;9.180;2022-09-16T07:33:23;8.23;;;5.13;;
305;SDS011;137;48.578;9.180;2022-09-16T07:35:50;5.57;;;4.70;;
305;SDS011;137;48.578;9.180;2022-09-16T07:38:16;5.93;;;5.30;;
305;SDS011;137;48.578;9.180;2022-09-16T07:40:43;5.60;;;5.10;;
305;SDS011;137;48.578;9.180;2022-09-16T07:43:10;10.40;;;6.47;;
305;SDS011;137;48.578;9.180;2022-09-16T07:45:37;6.90;;;4.50;;
305;SDS011;137;48.578;9.180;2022-09-16T07:48:03;5.67;;;5.00;;
305;SDS011;137;48.578;9.180;2022-09-16T07:50:31;4.20;;;3.80;;
305;SDS011;137;48.578;9.180;2022-09-16T07:52:58;5.53;;;4.90;;
305;SDS011;137;48.578;9.180;2022-09-16T07:55:25;5.87;;;4.00;;
305;SDS011;137;48.578;9.180;2022-09-16T07:57:52;5.03;;;4.43;;
305;SDS011;137;48.578;9.180;2022-09-16T08:00:19;9.10;;;5.00;;
305;SDS011;137;48.578;9.180;2022-09-16T08:02:46;4.63;;;3.30;;
305;SDS011;137;48.578;9.180;2022-09-16T08:05:13;6.00;;;4.53;;
305;SDS011;137;48.578;9.180;2022-09-16T08:07:41;4.07;;;3.77;;
305;SDS011;137;48.578;9.180;2022-09-16T08:10:08;3.90;;;3.33;;
305;SDS011;137;48.578;9.180;2022-09-16T08:12:35;7.77;;;3.70;;
305;SDS011;137;48.578;9.180;2022-09-16T08:15:02;5.07;;;3.43;;
305;SDS011;137;48.578;9.180;2022-09-16T08:17:29;5.73;;;3.90;;
305;SDS011;137;48.578;9.180;2022-09-16T08:19:55;6.50;;;3.30;;
305;SDS011;137;48.578;9.180;2022-09-16T08:22:22;4.73;;;3.80;;
305;SDS011;137;48.578;9.180;2022-09-16T08:24:51;5.93;;;2.90;;
305;SDS011;137;48.578;9.180;2022-09-16T08:27:17;3.60;;;3.17;;
305;SDS011;137;48.578;9.180;2022-09-16T08:29:44;4.70;;;4.30;;
305;SDS011;137;48.578;9.180;2022-09-16T08:32:11;4.37;;;3.90;;
305;SDS011;137;48.578;9.180;2022-09-16T08:34:38;7.03;;;3.80;;
305;SDS011;137;48.578;9.180;2022-09-16T08:37:05;4.10;;;3.33;;
305;SDS011;137;48.578;9.180;2022-09-16T08:39:32;4.17;;;3.77;;
305;SDS011;137;48.578;9.180;2022-09-16T08:42:19;6.43;;;3.60;;
305;SDS011;137;48.578;9.180;2022-09-16T08:44:59;4.67;;;3.17;;
305;SDS011;137;48.578;9.180;2022-09-16T08:47:36;4.87;;;3.33;;
305;SDS011;137;48.578;9.180;2022-09-16T08:50:11;6.03;;;3.93;;
305;SDS011;137;48.578;9.180;2022-09-16T08:52:41;5.50;;;3.13;;
305;SDS011;137;48.578;9.180;2022-09-16T08:55:10;3.83;;;2.80;;
305;SDS011;137;48.578;9.180;2022-09-16T08:57:43;4.43;;;3.30;;
305;SDS011;137;48.578;9.180;2022-09-16T09:00:18;4.33;;;2.63;;
305;SDS011;137;48.578;9.180;2022-09-16T09:02:47;5.07;;;3.40;;
305;SDS011;137;48.578;9.180;2022-09-16T09:05:20;3.33;;;3.00;;
305;SDS011;137;48.578;9.180;2022-09-16T09:07:56;4.30;;;3.33;;
305;SDS011;137;48.578;9.180;2022-09-16T09:10:35;4.87;;;2.53;;
305;SDS011;137;48.578;9.180;2022-09-16T09:13:10;4.40;;;3.40;;
305;SDS011;137;48.578;9.180;2022-09-16T09:15:45;4.00;;;3.07;;
305;SDS011;137;48.578;9.180;2022-09-16T09:18:30;2.77;;;2.30;;
305;SDS011;137;48.578;9.180;2022-09-16T09:21:09;5.33;;;3.63;;
305;SDS011;137;48.578;9.180;2022-09-16T09:23:49;3.40;;;2.73;;
305;SDS011;137;48.578;9.180;2022-09-16T09:26:31;3.20;;;3.00;;
305;SDS011;137;48.578;9.180;2022-09-16T09:29:14;3.77;;;3.37;;
305;SDS011;137;48.578;9.180;2022-09-16T09:31:52;3.80;;;3.47;;
305;SDS011;137;48.578;9.180;2022-09-16T09:34:28;3.27;;;2.63;;
305;SDS011;137;48.578;9.180;2022-09-16T09:37:08;3.63;;;3.33;;
305;SDS011;137;48.578;9.180;2022-09-16T09:39:51;3.30;;;3.03;;
305;SDS011;137;48.578;9.180;2022-09-16T09:42:27;5.60;;;5.03;;
305;SDS011;137;48.578;9.180;2022-09-16T09:44:59;3.63;;;3.33;;
305;SDS011;137;48.578;9.180;2022-09-16T09:47:30;4.30;;;3.77;;
305;SDS011;137;48.578;9.180;2022-09-16T09:50:11;5.03;;;3.60;;
305;SDS011;137;48.578;9.180;2022-09-16T09:52:42;4.67;;;3.80;;
305;SDS011;137;48.578;9.180;2022-09-16T09:55:14;3.90;;;3.50;;
305;SDS011;137;48.578;9.180;2022-09-16T09:57:58;3.40;;;3.10;;
305;SDS011;137;48.578;9.180;2022-09-16T10:00:35;4.90;;;4.00;;
305;SDS011;137;48.578;9.180;2022-09-16T10:03:06;10.57;;;4.33;;
305;SDS011;137;48.578;9.180;2022-09-16T10:05:37;4.67;;;3.87;;
305;SDS011;137;48.578;9.180;2022-09-16T10:08:08;5.40;;;3.80;;
305;SDS011;137;48.578;9.180;2022-09-16T10:10:41;5.40;;;3.70;;
305;SDS011;137;48.578;9.180;2022-09-16T10:13:14;4.07;;;3.77;;
305;SDS011;137;48.578;9.180;2022-09-16T10:15:43;5.23;;;4.33;;
305;SDS011;137;48.578;9.180;2022-09-16T10:18:11;3.37;;;3.07;;
305;SDS011;137;48.578;9.180;2022-09-16T10:20:41;4.57;;;4.03;;
305;SDS011;137;48.578;9.180;2022-09-16T10:23:10;3.83;;;3.30;;
305;SDS011;137;48.578;9.180;2022-09-16T10:25:39;3.70;;;3.40;;
305;SDS011;137;48.578;9.180;2022-09-16T10:28:17;3.87;;;3.57;;
305;SDS011;137;48.578;9.180;2022-09-16T10:30:47;3.73;;;2.50;;
305;SDS011;137;48.578;9.180;2022-09-16T10:33:19;4.20;;;3.87;;
305;SDS011;137;48.578;9.180;2022-09-16T10:35:52;3.17;;;2.73;;
305;SDS011;137;48.578;9.180;2022-09-16T10:38:22;2.80;;;2.43;;
305;SDS011;137;48.578;9.180;2022-09-16T10:40:52;3.00;;;2.00;;
305;SDS011;137;48.578;9.180;2022-09-16T10:43:20;3.00;;;2.70;;
305;SDS011;137;48.578;9.180;2022-09-16T10:45:49;4.97;;;2.30;;
305;SDS011;137;48.578;9.180;2022-09-16T10:48:18;2.60;;;2.40;;
305;SDS011;137;48.578;9.180;2022-09-16T10:50:52;4.13;;;2.53;;
305;SDS011;137;48.578;9.180;2022-09-16T10:53:26;3.27;;;2.97;;
305;SDS011;137;48.578;9.180;2022-09-16T10:55:57;2.80;;;2.60;;
305;SDS011;137;48.578;9.180;2022-09-16T10:58:24;2.97;;;2.63;;
305;SDS011;137;48.578;9.180;2022-09-16T11:00:55;2.67;;;2.47;;
305;SDS011;137;48.578;9.180;2022-09-16T11:03:56;2.90;;;2.60;;
305;SDS011;137;48.578;9.180;2022-09-16T11:06:39;4.68;;;3.00;;
305;SDS011;137;48.578;9.180;2022-09-16T11:09:17;2.93;;;2.33;;
305;SDS011;137;48.578;9.180;2022-09-16T11:12:02;3.10;;;2.60;;
305;SDS011;137;48.578;9.180;2022-09-16T11:14:47;2.40;;;2.20;;
305;SDS011;137;48.578;9.180;2022-09-16T11:17:28;2.40;;;2.03;;
305;SDS011;137;48.578;9.180;2022-09-16T11:20:11;3.45;;;3.15;;
305;SDS011;137;48.578;9.180;2022-09-16T11:22:58;2.70;;;2.27;;
305;SDS011;137;48.578;9.180;2022-09-16T11:25:33;2.60;;;2.40;;
305;SDS011;137;48.578;9.180;2022-09-16T11:28:11;2.60;;;2.40;;
305;SDS011;137;48.578;9.180;2022-09-16T11:30:50;6.33;;;2.73;;
305;SDS011;137;48.578;9.180;2022-09-16T11:33:25;2.43;;;2.23;;
305;SDS011;137;48.578;9.180;2022-09-16T11:36:15;3.97;;;2.60;;
305;SDS011;137;48.578;9.180;2022-09-16T11:38:51;3.93;;;2.37;;
305;SDS011;137;48.578;9.180;2022-09-16T11:41:30;4.07;;;2.23;;
305;SDS011;137;48.578;9.180;2022-09-16T11:44:05;2.37;;;2.03;;
305;SDS011;137;48.578;9.180;2022-09-16T11:46:45;2.47;;;1.80;;
305;SDS011;137;48.578;9.180;2022-09-16T11:49:24;3.20;;;2.40;;
305;SDS011;137;48.578;9.180;2022-09-16T11:52:05;2.37;;;2.17;;
305;SDS011;137;48.578;9.180;2022-09-16T11:54:49;5.57;;;2.50;;
305;SDS011;137;48.578;9.180;2022-09-16T11:57:28;2.40;;;1.93;;
305;SDS011;137;48.578;9.180;2022-09-16T12:00:01;3.17;;;2.37;;
305;SDS011;137;48.578;9.180;2022-09-16T12:02:34;2.87;;;2.13;;
305;SDS011;137;48.578;9.180;2022-09-16T12:05:06;3.17;;;1.80;;
305;SDS011;137;48.578;9.180;2022-09-16T12:07:43;3.27;;;1.70;;
305;SDS011;137;48.578;9.180;2022-09-16T12:10:18;2.37;;;2.07;;
305;SDS011;137;48.578;9.180;2022-09-16T12:12:49;2.13;;;1.50;;
305;SDS011;137;48.578;9.180;2022-09-16T12:15:21;2.90;;;1.50;;
305;SDS011;137;48.578;9.180;2022-09-16T12:17:51;2.40;;;1.40;;
305;SDS011;137;48.578;9.180;2022-09-16T12:20:23;2.30;;;1.70;;
305;SDS011;137;48.578;9.180;2022-09-16T12:22:54;2.93;;;1.40;;
305;SDS011;137;48.578;9.180;2022-09-16T12:25:28;2.03;;;1.27;;
305;SDS011;137;48.578;9.180;2022-09-16T12:28:00;3.40;;;1.30;;
305;SDS011;137;48.578;9.180;2022-09-16T12:30:33;1.73;;;1.40;;
305;SDS011;137;48.578;9.180;2022-09-16T12:33:04;1.90;;;1.50;;
305;SDS011;137;48.578;9.180;2022-09-16T12:35:36;2.93;;;1.50;;
305;SDS011;137;48.578;9.180;2022-09-16T12:38:07;2.67;;;1.40;;
305;SDS011;137;48.578;9.180;2022-09-16T12:40:46;2.90;;;1.30;;
305;SDS011;137;48.578;9.180;2022-09-16T12:46:37;1.40;;;1.30;;
305;SDS011;137;48.578;9.180;2022-09-16T12:55:47;3.10;;;1.40;;
305;SDS011;137;48.578;9.180;2022-09-16T13:01:18;2.80;;;1.60;;
305;SDS011;137;48.578;9.180;2022-09-16T13:03:49;1.93;;;1.50;;
305;SDS011;137;48.578;9.180;2022-09-16T13:06:21;2.40;;;2.00;;
305;SDS011;137;48.578;9.180;2022-09-16T13:08:52;2.70;;;1.60;;
305;SDS011;137;48.578;9.180;2022-09-16T13:11:20;1.73;;;1.33;;
305;SDS011;137;48.578;9.180;2022-09-16T13:13:49;2.50;;;1.50;;
305;SDS011;137;48.578;9.180;2022-09-16T13:16:29;8.20;;;1.67;;
305;SDS011;137;48.578;9.180;2022-09-16T13:19:14;3.77;;;1.50;;
305;SDS011;137;48.578;9.180;2022-09-16T13:22:11;2.37;;;1.50;;
305;SDS011;137;48.578;9.180;2022-09-16T13:24:47;4.03;;;1.57;;
305;SDS011;137;48.578;9.180;2022-09-16T13:27:22;3.03;;;1.40;;
305;SDS011;137;48.578;9.180;2022-09-16T13:29:51;1.50;;;1.30;;
305;SDS011;137;48.578;9.180;2022-09-16T13:32:36;1.60;;;1.40;;
305;SDS011;137;48.578;9.180;2022-09-16T13:35:19;2.10;;;1.40;;
305;SDS011;137;48.578;9.180;2022-09-16T13:37:49;1.20;;;1.10;;
305;SDS011;137;48.578;9.180;2022-09-16T13:40:19;2.33;;;1.47;;
305;SDS011;137;48.578;9.180;2022-09-16T13:42:48;2.60;;;1.20;;
305;SDS011;137;48.578;9.180;2022-09-16T13:45:31;1.83;;;1.13;;
305;SDS011;137;48.578;9.180;2022-09-16T13:48:00;2.50;;;1.43;;
305;SDS011;137;48.578;9.180;2022-09-16T13:50:35;1.50;;;1.23;;
305;SDS011;137;48.578;9.180;2022-09-16T13:53:09;2.80;;;1.50;;
305;SDS011;137;48.578;9.180;2022-09-16T13:55:37;2.43;;;1.50;;
305;SDS011;137;48.578;9.180;2022-09-16T13:58:09;2.70;;;1.40;;
305;SDS011;137;48.578;9.180;2022-09-16T14:00:44;1.50;;;1.40;;
305;SDS011;137;48.578;9.180;2022-09-16T14:03:33;2.03;;;1.30;;
305;SDS011;137;48.578;9.180;2022-09-16T14:06:30;1.40;;;1.30;;
305;SDS011;137;48.578;9.180;2022-09-16T14:09:14;4.07;;;1.40;;
305;SDS011;137;48.578;9.180;2022-09-16T14:11:54;2.50;;;1.70;;
305;SDS011;137;48.578;9.180;2022-09-16T14:14:28;2.00;;;1.17;;
305;SDS011;137;48.578;9.180;2022-09-16T14:16:59;3.17;;;1.50;;
305;SDS011;137;48.578;9.180;2022-09-16T14:19:29;1.50;;;1.30;;
305;SDS011;137;48.578;9.180;2022-09-16T14:22:01;2.03;;;1.40;;
305;SDS011;137;48.578;9.180;2022-09-16T14:24:33;2.77;;;1.40;;
305;SDS011;137;48.578;9.180;2022-09-16T14:27:03;2.67;;;1.50;;
305;SDS011;137;48.578;9.180;2022-09-16T14:29:52;2.77;;;1.50;;
305;SDS011;137;48.578;9.180;2022-09-16T14:32:20;2.53;;;2.33;;
305;SDS011;137;48.578;9.180;2022-09-16T14:34:48;2.57;;;1.30;;
305;SDS011;137;48.578;9.180;2022-09-16T14:37:16;2.43;;;1.60;;
305;SDS011;137;48.578;9.180;2022-09-16T14:39:45;2.30;;;1.47;;
305;SDS011;137;48.578;9.180;2022-09-16T14:42:15;2.43;;;1.50;;
305;SDS011;137;48.578;9.180;2022-09-16T14:44:45;2.37;;;1.33;;
305;SDS011;137;48.578;9.180;2022-09-16T14:47:16;3.50;;;1.50;;
305;SDS011;137;48.578;9.180;2022-09-16T14:49:44;4.03;;;1.53;;
305;SDS011;137;48.578;9.180;2022-09-16T14:52:15;2.23;;;1.73;;
305;SDS011;137;48.578;9.180;2022-09-16T14:54:45;3.63;;;1.30;;
305;SDS011;137;48.578;9.180;2022-09-16T14:57:15;3.60;;;1.70;;
305;SDS011;137;48.578;9.180;2022-09-16T14:59:46;2.17;;;1.80;;
305;SDS011;137;48.578;9.180;2022-09-16T15:02:15;3.07;;;1.83;;
305;SDS011;137;48.578;9.180;2022-09-16T15:04:49;2.90;;;1.87;;
305;SDS011;137;48.578;9.180;2022-09-16T15:07:19;2.10;;;1.40;;
305;SDS011;137;48.578;9.180;2022-09-16T15:09:48;3.10;;;1.90;;
305;SDS011;137;48.578;9.180;2022-09-16T15:12:22;2.60;;;1.43;;
305;SDS011;137;48.578;9.180;2022-09-16T15:14:51;1.67;;;1.40;;
305;SDS011;137;48.578;9.180;2022-09-16T15:17:19;3.40;;;1.47;;
305;SDS011;137;48.578;9.180;2022-09-16T15:19:49;3.73;;;1.90;;
305;SDS011;137;48.578;9.180;2022-09-16T15:22:19;2.03;;;1.53;;
305;SDS011;137;48.578;9.180;2022-09-16T15:24:48;2.43;;;1.43;;
305;SDS011;137;48.578;9.180;2022-09-16T15:27:26;4.20;;;1.80;;
305;SDS011;137;48.578;9.180;2022-09-16T15:29:58;3.90;;;1.53;;
305;SDS011;137;48.578;9.180;2022-09-16T15:32:29;2.00;;;1.43;;
305;SDS011;137;48.578;9.180;2022-09-16T15:35:08;3.03;;;1.47;;
305;SDS011;137;48.578;9.180;2022-09-16T15:37:41;2.80;;;1.60;;
305;SDS011;137;48.578;9.180;2022-09-16T15:40:09;2.80;;;1.50;;
305;SDS011;137;48.578;9.180;2022-09-16T15:42:46;3.27;;;1.90;;
305;SDS011;137;48.578;9.180;2022-09-16T15:45:15;3.10;;;1.77;;
305;SDS011;137;48.578;9.180;2022-09-16T15:47:57;9.83;;;2.10;;
305;SDS011;137;48.578;9.180;2022-09-16T15:50:26;1.80;;;1.37;;
305;SDS011;137;48.578;9.180;2022-09-16T15:52:55;1.83;;;1.10;;
305;SDS011;137;48.578;9.180;2022-09-16T15:55:26;4.30;;;1.53;;
305;SDS011;137;48.578;9.180;2022-09-16T15:58:00;1.23;;;1.13;;
305;SDS011;137;48.578;9.180;2022-09-16T16:00:37;4.07;;;1.60;;
305;SDS011;137;48.578;9.180;2022-09-16T16:03:22;3.10;;;1.40;;
305;SDS011;137;48.578;9.180;2022-09-16T16:05:49;2.03;;;1.60;;
305;SDS011;137;48.578;9.180;2022-09-16T16:08:35;3.87;;;1.50;;
305;SDS011;137;48.578;9.180;2022-09-16T16:11:04;3.13;;;1.77;;
305;SDS011;137;48.578;9.180;2022-09-16T16:13:34;1.87;;;1.63;;
305;SDS011;137;48.578;9.180;2022-09-16T16:16:01;1.73;;;1.30;;
305;SDS011;137;48.578;9.180;2022-09-16T16:18:29;2.63;;;1.43;;
305;SDS011;137;48.578;9.180;2022-09-16T16:20:58;1.60;;;1.43;;
305;SDS011;137;48.578;9.180;2022-09-16T16:23:25;1.60;;;1.23;;
305;SDS011;137;48.578;9.180;2022-09-16T16:25:53;1.93;;;1.30;;
305;SDS011;137;48.578;9.180;2022-09-16T16:28:19;1.83;;;1.17;;
305;SDS011;137;48.578;9.180;2022-09-16T16:30:48;2.00;;;1.20;;
305;SDS011;137;48.578;9.180;2022-09-16T16:33:15;4.83;;;1.43;;
305;SDS011;137;48.578;9.180;2022-09-16T16:35:41;2.70;;;1.53;;